ADDS METAR Data INFO
IDs: Format: Raw Decoded Include TAF

Data at: 0450 UTC 22 Apr 2018

METAR for:KDAY (Dayton/Cox Intl, OH, US)
Text:KDAY 220356Z 04007KT 10SM FEW150 SCT160 BKN170 07/M03 A3035 RMK AO2 SLP282 T00721033
Temperature: 7.2°C ( 45°F)
Dewpoint: -3.3°C ( 26°F) [RH = 47%]
Pressure (altimeter):30.35 inches Hg (1027.9 mb) [Sea level pressure: 1028.2 mb]
Winds:from the NE (40 degrees) at 8 MPH (7 knots; 3.6 m/s)
Visibility:10 or more sm (16+ km)
Ceiling:17000 feet AGL
Clouds: few clouds at 15000 feet AGL, scattered clouds at 16000 feet AGL, broken clouds at 17000 feet AGL